Wauregan, Connecticut
Current Conditions -  °F | °C
As of 6:52 AM on Thursday 23 Oct 2014 (Local Time) from KIJD Reporting Station
Overcast Overcast  
Wind Chill: 11°   Ceiling: 1700
Heat Index: 11°   Visibility: 10mi
Dew Point:   Wind: 12mph
Humidity: 77%   Direction: 30°NNE
Pressure: 29.65"   Gusts: 22mph
Location:  41.75°N, 71.91°W
Report Text: KIJD 231052Z AUTO 03010G19KT 10SM OVC017 11/07 A2965 RMK AO2 PK WND 04026/1025 RAB0957E12 SLP039 P0000 T01110072
Loading
Personal Weather Stations






























Interactive Weather Map
Tropical Storm Tracking
New forecast layout! Learn more

10-Day Weather Forecast

Advertisements
Track Severe Weather on mobile